Hovedside
METAR-TAF:

METAR-TAF

Lufthavner :

Flystasjon

Shizuhama, Japan

breddegrad: 34-49N, lengdegrad: 138-18E, høyde over havet: 7 m

Gjeldene værobservasjon

Denne rapporten ble laget for 4 timer og 32 minutter siden, klokken 18:16 UTC
Vind 6 kt fra Nord-nordøst
Temperatur 23°C
Luftfuktighet 57%
Trykk 1010 hPa
Sikt 10 km eller mer
Få skyer i en høyde av 2000 ft
Spredte skyer i en høyde av 4500 ft
Brutte skyer

METAR: RJNY 171816Z 03006KT 9999 FEW020 SCT045 BKN/// 23/14 Q1010 RMK 1CU020 3SC045 A2983

Tid: 07:48 (22:48 UTC)


TAF: fraværende

Værobservasjoner og værvarsel for over 4000 flyplasser (METAR- og TAF-rapporter).

Tilgjengelige stasjoner er representert av de røde og gule prikkene på kartet.

Hold musepekeren over prikken for å se navnet på stasjonen.

Klikk så for å se værobservasjoner og -varsler.

For å forandre kartet kan du klikke på den grønne knappen med svart kryss for å zoome inn, på den grønne knappen med strek for å zoome ut, eller på de grønne pilene for å se tilstøtende kart.


METAR-TAF: